Time;durP1;ratioP1;P1;durP2;ratioP2;P2;SDS_P1;SDS_P2;PMS_P1;PMS_P2;Temp;Humidity;BMP_temperature;BMP_pressure;BME280_temperature;BME280_humidity;BME280_pressure;Samples;Min_cycle;Max_cycle;Signal;HPM_P1;HPM_P2
2023/11/09 00:00:21;;;;;;;8.95;6.30;;;;;;;-145.63;55.45;39423.22;5004208;28;20218;-71
2023/11/09 00:02:47;;;;;;;10.90;6.20;;;;;;;-145.63;55.79;39438.84;5003969;28;20026;-70
2023/11/09 00:05:12;;;;;;;15.55;6.40;;;;;;;-145.63;55.66;39407.56;5000980;28;20030;-70
2023/11/09 00:07:39;;;;;;;15.88;6.40;;;;;;;-145.63;55.32;39509.28;4984950;28;20022;-70
2023/11/09 00:10:07;;;;;;;14.02;7.03;;;;;;;-145.63;55.47;39423.22;5002957;28;20432;-71
2023/11/09 00:12:34;;;;;;;12.27;6.38;;;;;;;-145.63;55.36;39436.91;4989743;28;20093;-70
2023/11/09 00:14:59;;;;;;;13.50;6.13;;;;;;;-145.63;55.66;39403.66;5004253;28;20087;-70
2023/11/09 00:17:25;;;;;;;11.82;6.43;;;;;;;-145.63;55.01;39399.75;5018677;28;20030;-70
2023/11/09 00:19:51;;;;;;;12.35;6.18;;;;;;;-145.63;55.53;39413.44;5002594;28;20030;-71
2023/11/09 00:22:17;;;;;;;14.57;6.03;;;;;;;-145.63;55.51;39409.53;5003938;28;20030;-70
2023/11/09 00:24:43;;;;;;;11.20;6.07;;;;;;;-145.63;55.47;39415.38;4987217;28;20062;-70
2023/11/09 00:27:20;;;;;;;12.88;6.57;;;;;;;-145.63;55.45;39419.31;5003034;28;20310;-69
2023/11/09 00:29:46;;;;;;;12.07;6.60;;;;;;;-145.63;55.64;39415.38;4994503;28;20019;-69
2023/11/09 00:32:16;;;;;;;9.52;6.32;;;;;;;-145.63;54.95;39434.94;4987149;28;20046;-70
2023/11/09 00:34:44;;;;;;;11.95;6.50;;;;;;;-145.63;55.04;39407.56;5003783;28;20072;-70
2023/11/09 00:37:10;;;;;;;14.13;6.78;;;;;;;-145.63;55.70;39409.53;4985062;28;20097;-70
2023/11/09 00:39:38;;;;;;;16.65;6.72;;;;;;;-145.63;55.61;39427.13;4998584;28;20211;-69
2023/11/09 00:42:07;;;;;;;12.98;5.78;;;;;;;-145.63;55.61;39409.53;4993596;28;20034;-69
2023/11/09 00:44:33;;;;;;;16.17;6.93;;;;;;;-145.63;55.25;39450.59;4981567;28;20026;-68
2023/11/09 00:46:59;;;;;;;19.95;7.85;;;;;;;-145.63;55.57;39427.13;4988069;28;20035;-69
2023/11/09 00:49:26;;;;;;;21.15;7.47;;;;;;;-145.63;55.15;39417.34;4999491;28;20034;-69
2023/11/09 00:51:51;;;;;;;12.43;7.25;;;;;;;-145.63;55.39;39423.22;5019162;28;20025;-69
2023/11/09 00:54:17;;;;;;;16.67;6.90;;;;;;;-145.63;55.93;39431.03;5002435;28;20038;-69
2023/11/09 00:56:43;;;;;;;14.02;7.03;;;;;;;-145.63;55.75;39407.56;4988229;28;20041;-69
2023/11/09 00:59:09;;;;;;;10.00;6.47;;;;;;;-145.63;55.49;39427.13;4986724;28;20030;-68
2023/11/09 01:01:34;;;;;;;14.70;6.72;;;;;;;-145.63;55.99;39403.66;5004082;28;20030;-69
2023/11/09 01:04:00;;;;;;;13.48;6.80;;;;;;;-145.63;55.66;39421.25;5003788;28;20247;-68
2023/11/09 01:06:26;;;;;;;15.52;7.07;;;;;;;-145.63;55.95;39429.06;4991146;28;20246;-67
2023/11/09 01:08:52;;;;;;;14.68;6.95;;;;;;;-145.63;55.80;39393.88;4992418;28;20022;-68
2023/11/09 01:11:24;;;;;;;12.65;6.55;;;;;;;-145.63;55.91;39389.97;5000244;28;20035;-68
2023/11/09 01:13:52;;;;;;;24.60;7.20;;;;;;;-145.63;55.31;39399.75;4984352;28;20266;-68
2023/11/09 01:16:19;;;;;;;16.35;7.47;;;;;;;-145.63;55.06;39434.94;4984364;28;20027;-68
2023/11/09 01:18:46;;;;;;;12.38;6.90;;;;;;;-145.63;55.39;39423.22;4995081;28;20060;-69
2023/11/09 01:21:12;;;;;;;16.35;7.50;;;;;;;-145.63;55.54;39411.47;5002664;28;20030;-68
2023/11/09 01:23:37;;;;;;;13.63;6.90;;;;;;;-145.63;55.27;39331.28;4997519;28;20057;-68
2023/11/09 01:26:03;;;;;;;15.60;8.02;;;;;;;-145.63;54.95;39407.56;4985765;28;20046;-70
2023/11/09 01:28:29;;;;;;;14.98;7.55;;;;;;;-145.63;55.06;39403.66;5002697;28;20045;-69
2023/11/09 01:30:55;;;;;;;16.08;7.40;;;;;;;-145.63;54.99;39431.03;4989196;28;20077;-69
2023/11/09 01:33:21;;;;;;;14.00;7.50;;;;;;;-145.63;55.63;39415.38;4999822;28;20060;-69
2023/11/09 01:35:46;;;;;;;13.27;7.43;;;;;;;-145.63;54.97;39386.06;5000163;28;20192;-69
2023/11/09 01:38:12;;;;;;;10.63;6.95;;;;;;;-145.63;55.49;39391.91;4990865;28;20038;-68
2023/11/09 01:40:39;;;;;;;16.80;8.23;;;;;;;-145.63;54.93;39425.16;5006360;28;20058;-69
2023/11/09 01:43:14;;;;;;;16.15;8.07;;;;;;;-145.63;55.24;39423.22;4990045;28;20038;-70
2023/11/09 01:45:43;;;;;;;14.73;7.63;;;;;;;-145.63;55.34;39440.81;5002282;28;20031;-70
2023/11/09 01:48:09;;;;;;;16.48;7.47;;;;;;;-145.63;54.76;39407.56;4993650;28;20026;-69
2023/11/09 01:50:36;;;;;;;12.20;7.85;;;;;;;-145.63;54.97;39409.53;5001554;28;20065;-69
2023/11/09 01:53:07;;;;;;;14.30;7.18;;;;;;;-145.63;55.34;39411.47;4999344;28;20034;-70
2023/11/09 01:55:34;;;;;;;13.00;7.43;;;;;;;-145.63;55.09;39397.78;4990545;28;20033;-69
2023/11/09 01:58:02;;;;;;;17.52;7.90;;;;;;;-145.63;55.65;39403.66;4989920;28;20030;-69
2023/11/09 02:00:28;;;;;;;16.33;7.82;;;;;;;-145.63;55.24;38932.34;5004882;28;20026;-70
2023/11/09 02:02:56;;;;;;;18.02;7.75;;;;;;;-145.63;55.26;39376.28;5006905;28;20096;-69
2023/11/09 02:05:24;;;;;;;13.02;7.35;;;;;;;-145.63;54.96;39409.53;5003217;28;20033;-69
2023/11/09 02:07:53;;;;;;;8.20;6.38;;;;;;;-145.63;54.72;39415.38;4986393;28;20090;-70
2023/11/09 02:10:19;;;;;;;12.15;7.03;;;;;;;-145.63;55.42;39413.44;5005646;28;20109;-70
2023/11/09 02:12:45;;;;;;;11.60;7.30;;;;;;;-145.63;55.17;39388.00;4991079;28;20037;-70
2023/11/09 02:15:11;;;;;;;15.13;7.63;;;;;;;-145.63;54.86;39433.00;4997735;28;20049;-69
2023/11/09 02:17:37;;;;;;;17.83;8.07;;;;;;;-145.63;55.30;39399.75;5001448;28;20306;-70
2023/11/09 02:20:05;;;;;;;12.95;8.40;;;;;;;-145.63;54.90;39427.13;4991779;28;20098;-70
2023/11/09 02:22:46;;;;;;;15.23;7.90;;;;;;;-145.63;55.61;39378.22;5006797;28;20030;-69
2023/11/09 02:25:12;;;;;;;17.38;7.93;;;;;;;-145.63;55.29;39413.44;5004296;28;20032;-70
2023/11/09 02:27:38;;;;;;;18.67;7.65;;;;;;;-145.63;55.78;39417.34;5005701;28;20038;-68
2023/11/09 02:30:05;;;;;;;16.38;8.05;;;;;;;-145.63;55.86;39411.47;5006409;28;20574;-68
2023/11/09 02:32:30;;;;;;;20.60;9.57;;;;;;;-145.63;55.67;39395.84;5006025;28;20046;-69
2023/11/09 02:34:56;;;;;;;19.83;7.65;;;;;;;-145.63;55.58;39411.47;5006194;28;20084;-69
2023/11/09 02:37:24;;;;;;;17.08;8.20;;;;;;;-145.63;56.01;39440.81;5005387;28;20033;-69
2023/11/09 02:39:53;;;;;;;14.15;7.13;;;;;;;-145.63;55.80;39415.38;5004790;28;20030;-68
2023/11/09 02:42:22;;;;;;;16.02;7.50;;;;;;;-145.63;55.88;39411.47;5004826;28;20081;-69
2023/11/09 02:44:48;;;;;;;16.08;7.32;;;;;;;-145.63;56.26;39433.00;5005667;28;20363;-69
2023/11/09 02:47:14;;;;;;;13.13;7.38;;;;;;;-145.63;55.75;39421.25;4998802;28;20042;-69
2023/11/09 02:49:41;;;;;;;15.63;6.88;;;;;;;-145.63;56.24;39401.69;5004641;28;20118;-69
2023/11/09 02:52:07;;;;;;;15.73;6.93;;;;;;;-145.63;55.76;39411.47;5002739;28;20030;-69
2023/11/09 02:54:32;;;;;;;20.08;7.50;;;;;;;-145.63;55.99;39386.06;5004490;28;20035;-69
2023/11/09 02:56:58;;;;;;;12.30;7.18;;;;;;;-145.63;55.01;39436.91;5004358;28;20022;-69
2023/11/09 02:59:24;;;;;;;15.45;7.90;;;;;;;-145.63;55.38;39403.66;5001064;28;20030;-69
2023/11/09 03:01:50;;;;;;;12.35;6.88;;;;;;;-145.63;55.24;39415.38;5005195;28;20038;-69
2023/11/09 03:04:17;;;;;;;16.95;7.53;;;;;;;-145.63;55.71;39436.91;5009276;28;20030;-68
2023/11/09 03:06:43;;;;;;;15.35;7.53;;;;;;;-145.63;55.70;39395.84;5005624;28;20230;-69
2023/11/09 03:09:11;;;;;;;17.20;7.45;;;;;;;-145.63;55.66;39425.16;5005580;28;20034;-68
2023/11/09 03:11:37;;;;;;;14.23;7.53;;;;;;;-145.63;55.43;39403.66;5001479;28;20086;-69
2023/11/09 03:14:05;;;;;;;9.32;6.93;;;;;;;-145.63;55.36;39399.75;5005419;28;20089;-69
2023/11/09 03:16:31;;;;;;;12.70;7.15;;;;;;;-145.63;55.34;39401.69;4988029;28;20077;-69
2023/11/09 03:18:58;;;;;;;19.77;7.72;;;;;;;-145.63;55.48;39407.56;5003461;28;20045;-69
2023/11/09 03:21:24;;;;;;;15.35;7.32;;;;;;;-145.63;55.33;39419.31;5005557;28;20026;-70
2023/11/09 03:23:50;;;;;;;14.93;7.47;;;;;;;-145.63;55.28;39395.84;4994478;28;20033;-70
2023/11/09 03:26:17;;;;;;;13.02;7.30;;;;;;;-145.63;55.34;39438.84;5005307;28;20095;-69
2023/11/09 03:28:43;;;;;;;15.25;7.00;;;;;;;-145.63;55.69;39425.16;4992353;28;20073;-69
2023/11/09 03:31:12;;;;;;;10.93;6.97;;;;;;;-145.63;55.61;38752.44;5003079;28;20034;-69
2023/11/09 03:33:38;;;;;;;17.73;7.20;;;;;;;-145.63;55.73;39376.28;5002233;28;20081;-69
2023/11/09 03:36:04;;;;;;;16.13;7.20;;;;;;;-145.63;55.59;39456.47;5003627;28;20278;-69
2023/11/09 03:38:30;;;;;;;12.65;7.40;;;;;;;-145.63;55.74;39417.34;5004568;28;20022;-68
2023/11/09 03:40:56;;;;;;;12.85;7.68;;;;;;;-145.63;55.26;39474.06;5004402;28;20026;-67
2023/11/09 03:43:22;;;;;;;13.95;7.95;;;;;;;-145.63;55.21;39411.47;5004966;28;20088;-68
2023/11/09 03:45:47;;;;;;;15.63;7.20;;;;;;;-145.63;55.87;39415.38;5004267;28;20026;-69
2023/11/09 03:48:14;;;;;;;16.73;7.95;;;;;;;-145.63;55.55;39384.09;5002279;28;20026;-69
2023/11/09 03:50:42;;;;;;;21.95;7.68;;;;;;;-145.63;55.91;39397.78;5004416;28;20037;-69
2023/11/09 03:53:08;;;;;;;19.58;7.50;;;;;;;-145.63;56.43;39376.28;5005178;28;20034;-69
2023/11/09 03:55:33;;;;;;;15.98;7.43;;;;;;;-145.63;56.34;39407.56;5004511;28;20037;-69
2023/11/09 03:57:59;;;;;;;15.52;7.78;;;;;;;-145.63;56.22;39427.13;4998771;28;20030;-69
2023/11/09 04:00:25;;;;;;;16.77;7.68;;;;;;;-145.63;55.92;39401.69;4993906;28;20034;-70
2023/11/09 04:02:50;;;;;;;21.88;7.90;;;;;;;-145.63;55.83;39448.63;5004237;28;20084;-70
2023/11/09 04:05:18;;;;;;;17.00;8.50;;;;;;;-145.63;55.41;39413.44;5015317;28;20057;-70
2023/11/09 04:07:44;;;;;;;17.98;8.60;;;;;;;-145.63;55.26;39427.13;5004504;28;20073;-71
2023/11/09 04:10:12;;;;;;;14.73;7.90;;;;;;;-145.63;55.48;39409.53;4994435;28;20038;-70
2023/11/09 04:12:39;;;;;;;15.02;7.82;;;;;;;-145.63;55.63;39427.13;5004453;28;20026;-70
2023/11/09 04:15:05;;;;;;;17.05;8.02;;;;;;;-145.63;55.72;39409.53;5001737;28;20042;-70
2023/11/09 04:17:32;;;;;;;12.55;7.68;;;;;;;-145.63;55.84;39427.13;5004352;28;20025;-70
2023/11/09 04:20:03;;;;;;;16.13;7.72;;;;;;;-145.63;55.75;39415.38;4998496;28;20034;-70
2023/11/09 04:22:32;;;;;;;18.52;8.00;;;;;;;-145.63;55.62;39395.84;5004368;28;20042;-71
2023/11/09 04:24:58;;;;;;;17.15;8.75;;;;;;;-145.63;55.39;39438.84;5004566;28;20038;-70
2023/11/09 04:27:24;;;;;;;15.95;9.10;;;;;;;-145.63;55.23;39415.38;4993400;28;20263;-70
2023/11/09 04:29:50;;;;;;;15.07;8.25;;;;;;;-145.63;55.57;39407.56;4989638;28;20030;-70
2023/11/09 04:32:19;;;;;;;16.55;9.32;;;;;;;-145.63;55.46;39407.56;5002146;28;20065;-70
2023/11/09 04:34:46;;;;;;;12.88;8.93;;;;;;;-145.63;55.44;39405.59;4983539;28;20243;-69
2023/11/09 04:37:13;;;;;;;19.92;8.95;;;;;;;-145.63;55.53;39411.47;5001623;28;20034;-69
2023/11/09 04:39:46;;;;;;;23.95;10.40;;;;;;;-145.63;55.19;39395.84;4990324;28;20031;-70
2023/11/09 04:42:18;;;;;;;19.02;10.00;;;;;;;-145.63;55.56;39409.53;4993224;28;20022;-70
2023/11/09 04:44:46;;;;;;;16.33;8.75;;;;;;;-145.63;55.50;39393.88;5002941;28;20049;-70
2023/11/09 04:47:21;;;;;;;14.25;8.25;;;;;;;-145.63;55.76;39397.78;4998362;28;20030;-71
2023/11/09 04:49:57;;;;;;;12.55;8.18;;;;;;;-145.63;55.34;39425.16;4992259;28;20039;-69
2023/11/09 04:52:30;;;;;;;13.90;7.82;;;;;;;-145.63;55.42;39417.34;5003205;28;20219;-71
2023/11/09 04:55:14;;;;;;;12.45;7.97;;;;;;;-145.63;55.47;39427.13;4994189;28;20026;-68
2023/11/09 05:08:41;;;;;;;9.63;6.95;;;;;;;-145.63;55.56;39409.53;4997055;28;20064;-72
2023/11/09 05:11:09;;;;;;;14.95;7.72;;;;;;;-145.63;55.17;39427.13;4997212;28;20030;-72
2023/11/09 05:13:35;;;;;;;16.05;8.20;;;;;;;-145.63;55.61;39423.22;4997121;28;20022;-70
2023/11/09 05:16:01;;;;;;;13.68;7.75;;;;;;;-145.63;55.57;39401.69;4987778;28;20287;-70
2023/11/09 05:18:26;;;;;;;19.40;8.02;;;;;;;-145.63;55.57;39429.06;4994661;28;20033;-70
2023/11/09 05:20:52;;;;;;;18.27;7.93;;;;;;;-145.63;55.47;39401.69;4986217;28;20085;-70
2023/11/09 05:23:18;;;;;;;16.85;7.72;;;;;;;-145.63;55.34;39419.31;4983967;28;20053;-70
2023/11/09 05:25:45;;;;;;;19.08;8.13;;;;;;;-145.63;55.14;39415.38;5000972;28;20057;-71
2023/11/09 05:28:10;;;;;;;15.55;7.40;;;;;;;-145.63;55.32;39393.88;4994028;28;20423;-71
2023/11/09 05:30:36;;;;;;;21.70;8.70;;;;;;;-145.63;55.57;39411.47;4990802;28;20026;-69
2023/11/09 05:33:02;;;;;;;14.95;7.97;;;;;;;-145.63;54.71;39419.31;4988310;28;20406;-69
2023/11/09 05:35:28;;;;;;;16.10;8.63;;;;;;;-145.63;55.50;39399.75;4999023;28;20101;-68
2023/11/09 05:37:56;;;;;;;16.63;7.72;;;;;;;-145.63;54.78;39415.38;4982420;28;20026;-69
2023/11/09 05:40:21;;;;;;;17.48;8.20;;;;;;;-145.63;55.56;39423.22;5001702;28;20045;-70
2023/11/09 05:42:47;;;;;;;16.05;8.13;;;;;;;-145.63;54.84;39364.53;4989957;28;20101;-69
2023/11/09 05:45:13;;;;;;;18.15;7.90;;;;;;;-145.63;55.05;39407.56;4992621;28;20074;-69
2023/11/09 05:47:40;;;;;;;16.08;8.35;;;;;;;-145.63;55.42;39456.47;4999305;28;20206;-70
2023/11/09 05:50:07;;;;;;;15.35;8.00;;;;;;;-145.63;54.88;39403.66;5000741;28;20030;-69
2023/11/09 05:52:34;;;;;;;17.90;7.70;;;;;;;-145.63;54.99;39397.78;5003296;28;20064;-71
2023/11/09 05:55:00;;;;;;;18.83;8.00;;;;;;;-145.63;54.34;39421.25;4997424;28;20027;-69
2023/11/09 05:57:26;;;;;;;12.05;7.40;;;;;;;-145.63;54.63;39407.56;5003397;28;20045;-69
2023/11/09 05:59:52;;;;;;;17.20;7.80;;;;;;;-145.63;54.46;39395.84;5002625;28;20085;-69
2023/11/09 06:02:17;;;;;;;15.45;7.65;;;;;;;-145.63;54.59;39395.84;5003193;28;20035;-69
2023/11/09 06:04:43;;;;;;;14.50;8.18;;;;;;;-145.63;54.15;39384.09;5003377;28;20198;-69
2023/11/09 06:07:11;;;;;;;14.63;7.90;;;;;;;-145.63;54.90;39401.69;4987351;28;20031;-69
2023/11/09 06:09:45;;;;;;;18.23;7.88;;;;;;;-145.63;55.07;39454.50;4986616;28;20041;-69
2023/11/09 06:12:11;;;;;;;18.20;8.75;;;;;;;-145.63;54.24;39423.22;4987718;28;20026;-69
2023/11/09 06:14:37;;;;;;;12.65;7.72;;;;;;;-145.63;54.49;39161.13;4987151;28;20037;-69
2023/11/09 06:17:03;;;;;;;12.40;8.35;;;;;;;-145.63;54.61;39425.16;5005348;28;20053;-70
2023/11/09 06:19:29;;;;;;;13.98;7.55;;;;;;;-145.63;54.26;39425.16;4986458;28;20090;-71
2023/11/09 06:21:57;;;;;;;14.75;8.52;;;;;;;-145.63;54.97;39411.47;5002169;28;20054;-72
2023/11/09 06:24:23;;;;;;;15.65;8.85;;;;;;;-145.63;54.39;39411.47;4997719;28;20057;-71
2023/11/09 06:26:51;;;;;;;14.98;8.65;;;;;;;-145.63;54.40;39411.47;4997910;28;20038;-71
2023/11/09 06:29:17;;;;;;;18.88;8.30;;;;;;;-145.63;53.69;39421.25;5004382;28;20022;-71
2023/11/09 06:31:43;;;;;;;14.45;8.82;;;;;;;-145.63;53.96;39397.78;4986378;28;20357;-74
2023/11/09 06:34:14;;;;;;;13.30;8.00;;;;;;;-145.63;54.23;39395.84;5002569;28;20330;-72
2023/11/09 06:36:45;;;;;;;13.88;8.07;;;;;;;-145.63;54.17;39419.31;4999500;28;20038;-70
2023/11/09 06:39:18;;;;;;;18.67;8.80;;;;;;;-145.63;54.02;39419.31;5005165;28;20022;-70
2023/11/09 06:41:47;;;;;;;13.88;8.25;;;;;;;-145.63;53.71;39399.75;5003632;28;20327;-72
2023/11/09 06:44:15;;;;;;;20.60;9.65;;;;;;;-145.63;53.80;39391.91;5004539;28;20023;-71
2023/11/09 06:46:41;;;;;;;13.55;8.90;;;;;;;-145.63;54.11;39393.88;4994091;28;20026;-71
2023/11/09 06:49:08;;;;;;;15.23;8.75;;;;;;;-145.63;54.13;39395.84;5000850;28;20038;-71
2023/11/09 06:51:34;;;;;;;16.60;9.57;;;;;;;-145.63;54.00;39397.78;5005906;28;20102;-71
2023/11/09 06:54:01;;;;;;;18.88;9.15;;;;;;;-145.63;54.04;39411.47;5005328;28;20034;-72
2023/11/09 06:56:29;;;;;;;20.25;9.07;;;;;;;-145.63;53.93;39378.22;5003803;28;20022;-72
2023/11/09 06:58:54;;;;;;;13.85;8.00;;;;;;;-145.63;53.84;39382.13;5003261;28;20034;-73
2023/11/09 07:01:21;;;;;;;18.58;9.82;;;;;;;-145.63;53.82;39364.53;5005371;28;20053;-74
2023/11/09 07:03:47;;;;;;;16.42;9.55;;;;;;;-145.63;53.65;39388.00;5003733;28;20045;-73
2023/11/09 07:06:12;;;;;;;14.90;7.95;;;;;;;-145.63;53.73;39407.56;5002782;28;20030;-74
2023/11/09 07:08:38;;;;;;;13.13;8.60;;;;;;;-145.63;53.84;39348.88;5005515;28;20069;-73
2023/11/09 07:11:07;;;;;;;16.70;9.13;;;;;;;-145.63;53.90;39388.00;5005025;28;20144;-72
2023/11/09 07:13:33;;;;;;;15.98;8.32;;;;;;;-145.63;53.46;39348.88;4984757;28;20094;-72
2023/11/09 07:15:59;;;;;;;20.25;9.20;;;;;;;-145.63;53.71;39382.13;4990811;28;20054;-73
2023/11/09 07:18:25;;;;;;;26.30;10.05;;;;;;;-145.63;53.35;39356.72;4995295;28;20045;-72
2023/11/09 07:20:50;;;;;;;20.35;10.40;;;;;;;-145.63;53.54;39360.63;5005278;28;20097;-71
2023/11/09 07:23:17;;;;;;;19.80;9.85;;;;;;;-145.63;53.15;39356.72;4996087;28;20077;-71
2023/11/09 07:25:43;;;;;;;13.52;9.20;;;;;;;-145.63;53.05;39399.75;5003487;28;20172;-71
2023/11/09 07:28:09;;;;;;;21.55;9.55;;;;;;;-145.63;53.07;39360.63;4996249;28;20077;-70
2023/11/09 07:30:35;;;;;;;17.70;9.77;;;;;;;-145.63;52.79;38836.50;4996082;28;20053;-71
2023/11/09 07:33:03;;;;;;;18.33;9.68;;;;;;;-145.63;52.75;39372.34;4997641;28;20046;-71
2023/11/09 07:35:29;;;;;;;26.75;10.70;;;;;;;-145.63;52.89;39401.69;4985448;28;20230;-72
2023/11/09 07:37:56;;;;;;;24.35;10.38;;;;;;;-145.63;53.53;39356.72;4993670;28;20030;-70
2023/11/09 07:40:26;;;;;;;14.60;9.70;;;;;;;-145.63;52.99;39384.09;5004246;28;20026;-71
2023/11/09 07:42:52;;;;;;;17.95;8.77;;;;;;;-145.63;53.02;39360.63;4992141;28;20022;-71
2023/11/09 07:45:19;;;;;;;21.55;8.77;;;;;;;-145.63;53.02;39356.72;4989198;28;20054;-71
2023/11/09 07:47:45;;;;;;;15.30;8.43;;;;;;;-145.63;53.04;39341.06;4996364;28;20030;-71
2023/11/09 07:50:13;;;;;;;16.98;9.13;;;;;;;-145.63;52.80;39362.59;4985920;28;20033;-71
2023/11/09 07:52:40;;;;;;;20.10;9.63;;;;;;;-145.63;52.79;39360.63;5004105;28;20089;-71
2023/11/09 07:55:07;;;;;;;18.60;9.50;;;;;;;-145.63;52.56;39325.41;4990169;28;20062;-72
2023/11/09 07:57:35;;;;;;;18.85;9.80;;;;;;;-145.63;52.81;39415.38;4995159;28;20033;-71
2023/11/09 08:00:02;;;;;;;21.20;10.30;;;;;;;-145.63;52.63;39403.66;5002208;28;20022;-71
2023/11/09 08:02:31;;;;;;;23.38;10.90;;;;;;;-145.63;53.09;39395.84;5002873;28;20038;-72
2023/11/09 08:04:57;;;;;;;17.88;10.25;;;;;;;-145.63;52.98;39395.84;4997304;28;20438;-70
2023/11/09 08:07:23;;;;;;;24.55;10.75;;;;;;;-145.63;52.91;39393.88;5004239;28;20102;-72
2023/11/09 08:09:49;;;;;;;24.20;10.80;;;;;;;-145.63;52.62;39395.84;5003851;28;20026;-71
2023/11/09 08:12:15;;;;;;;26.25;11.25;;;;;;;-145.63;52.56;39393.88;5003768;28;20090;-71
2023/11/09 08:14:42;;;;;;;16.58;10.43;;;;;;;-145.63;52.91;39376.28;5003074;28;20048;-73
2023/11/09 08:17:09;;;;;;;25.15;12.68;;;;;;;-145.63;52.82;39380.19;5003876;28;20062;-71
2023/11/09 08:19:35;;;;;;;23.48;11.38;;;;;;;-145.63;52.81;39384.09;5004014;28;20037;-72
2023/11/09 08:22:01;;;;;;;23.73;11.75;;;;;;;-145.63;53.10;39366.50;5003992;28;20037;-73
2023/11/09 08:24:26;;;;;;;25.38;12.48;;;;;;;-145.63;53.21;39380.19;5002969;28;20042;-73
2023/11/09 08:26:52;;;;;;;28.40;13.25;;;;;;;-145.63;53.07;39395.84;5000105;28;20041;-72
2023/11/09 08:29:18;;;;;;;27.23;12.45;;;;;;;-145.63;53.21;39364.53;5003698;28;20056;-73
2023/11/09 08:31:43;;;;;;;22.92;10.88;;;;;;;-145.63;52.93;39364.53;5003474;28;20026;-71
2023/11/09 08:34:11;;;;;;;23.15;10.30;;;;;;;-145.63;52.89;39403.66;5003096;28;20058;-72
2023/11/09 08:36:37;;;;;;;15.82;9.07;;;;;;;-145.63;52.37;39389.97;5001285;28;20034;-74
2023/11/09 08:39:03;;;;;;;14.98;10.32;;;;;;;-145.63;52.56;39389.97;5001572;28;20191;-70
2023/11/09 08:41:30;;;;;;;19.75;9.85;;;;;;;-145.63;52.58;39378.22;5002475;28;20034;-69
2023/11/09 08:43:55;;;;;;;22.67;11.85;;;;;;;-145.63;52.81;39409.53;4992889;28;20050;-70
2023/11/09 08:46:23;;;;;;;21.02;11.07;;;;;;;-145.63;52.77;39391.91;4998622;28;20326;-73
2023/11/09 08:48:49;;;;;;;21.00;11.90;;;;;;;-145.63;52.89;39380.19;4992274;28;20022;-72
2023/11/09 08:51:15;;;;;;;16.90;11.07;;;;;;;-145.63;53.04;39399.75;4997545;28;20139;-71
2023/11/09 08:53:42;;;;;;;14.48;10.45;;;;;;;-145.63;52.69;39411.47;4998840;28;20042;-71
2023/11/09 08:56:10;;;;;;;17.27;10.65;;;;;;;-145.63;52.67;39403.66;4998034;28;20318;-72
2023/11/09 08:58:38;;;;;;;15.98;9.70;;;;;;;-145.63;52.60;39382.13;4999835;28;20026;-71
2023/11/09 09:01:12;;;;;;;18.00;10.32;;;;;;;-145.63;52.56;39403.66;5002915;28;20065;-71
2023/11/09 09:03:41;;;;;;;15.75;10.25;;;;;;;-145.63;52.41;39386.06;4996765;28;20014;-72
2023/11/09 09:06:07;;;;;;;15.32;10.32;;;;;;;-145.63;52.63;39368.44;5000184;28;20041;-70
2023/11/09 09:08:33;;;;;;;16.00;10.23;;;;;;;-145.63;52.13;39413.44;5002292;28;20026;-71
2023/11/09 09:10:58;;;;;;;14.90;9.27;;;;;;;-145.63;52.31;39372.34;5003110;28;20030;-70
2023/11/09 09:13:25;;;;;;;16.75;10.07;;;;;;;-145.63;52.55;39395.84;4999474;28;20034;-70
2023/11/09 09:15:53;;;;;;;14.60;9.68;;;;;;;-145.63;52.38;39389.97;5003365;28;20044;-71
2023/11/09 09:18:20;;;;;;;14.95;9.55;;;;;;;-145.63;52.38;39368.44;4996351;28;20027;-71
2023/11/09 09:20:46;;;;;;;32.50;16.63;;;;;;;-145.63;52.19;39348.88;4996308;28;20104;-69
2023/11/09 09:23:13;;;;;;;13.88;10.50;;;;;;;-145.63;52.12;39389.97;4990983;28;20322;-70
2023/11/09 09:25:38;;;;;;;18.67;10.13;;;;;;;-145.63;52.19;39352.81;4989840;28;20037;-72
2023/11/09 09:28:04;;;;;;;19.33;10.50;;;;;;;-145.63;52.04;39403.66;4992736;28;20022;-71
2023/11/09 09:30:30;;;;;;;19.00;11.93;;;;;;;-145.63;52.49;39346.94;4991418;28;20202;-71
2023/11/09 09:32:56;;;;;;;19.40;12.40;;;;;;;-145.63;52.45;39391.91;4988863;28;20058;-70
2023/11/09 09:35:26;;;;;;;17.75;10.98;;;;;;;-145.63;52.31;39419.31;4993788;28;20018;-70
2023/11/09 09:37:52;;;;;;;17.00;9.80;;;;;;;-145.63;52.59;39382.13;4991683;28;20030;-69
2023/11/09 09:40:25;;;;;;;17.00;9.85;;;;;;;-145.63;52.35;39372.34;4991056;28;20322;-70
2023/11/09 09:42:53;;;;;;;14.90;10.65;;;;;;;-145.63;52.17;39431.03;5002828;28;20064;-72
2023/11/09 09:45:24;;;;;;;17.25;10.38;;;;;;;-145.63;52.34;39399.75;4996174;28;20022;-70
2023/11/09 09:47:52;;;;;;;15.75;10.50;;;;;;;-145.63;52.16;39384.09;4988237;28;20226;-72
2023/11/09 09:50:25;;;;;;;14.27;8.88;;;;;;;-145.63;52.04;39413.44;4989901;28;20031;-71
2023/11/09 09:52:55;;;;;;;13.18;8.60;;;;;;;-145.63;52.13;39407.56;4987039;28;20031;-71
2023/11/09 09:55:24;;;;;;;12.18;8.65;;;;;;;-145.63;51.89;39411.47;4996287;28;20318;-71
2023/11/09 09:57:51;;;;;;;21.10;10.30;;;;;;;-145.63;51.93;39446.69;4995269;28;20041;-71
2023/11/09 10:00:28;;;;;;;15.95;9.63;;;;;;;-145.63;52.24;39431.03;4992892;28;20128;-73
2023/11/09 10:02:56;;;;;;;9.77;7.82;;;;;;;-145.63;51.75;39411.47;5004914;28;20337;-73
2023/11/09 10:05:24;;;;;;;13.45;8.10;;;;;;;-145.63;51.80;39388.00;5006879;28;20077;-70
2023/11/09 10:07:57;;;;;;;12.68;7.75;;;;;;;-145.63;51.60;39376.28;4987040;28;20102;-70
2023/11/09 10:10:26;;;;;;;13.63;8.18;;;;;;;-145.63;51.81;39356.72;5002597;28;20036;-72
2023/11/09 10:12:55;;;;;;;16.05;7.95;;;;;;;-145.63;51.93;39391.91;4994551;28;20023;-70
2023/11/09 10:15:24;;;;;;;12.20;8.02;;;;;;;-145.63;51.71;39395.84;4992924;28;20039;-71
2023/11/09 10:17:54;;;;;;;12.43;7.63;;;;;;;-145.63;51.71;39397.78;5006260;28;20038;-71
2023/11/09 10:20:20;;;;;;;15.95;7.20;;;;;;;-145.63;51.52;39409.53;5005187;28;20210;-71
2023/11/09 10:22:48;;;;;;;11.18;7.43;;;;;;;-145.63;51.43;39399.75;5004926;28;20022;-71
2023/11/09 10:25:17;;;;;;;11.07;7.35;;;;;;;-145.63;51.31;39386.06;4992327;28;20027;-71
2023/11/09 10:27:42;;;;;;;11.82;7.72;;;;;;;-145.63;51.85;39389.97;4995563;28;20369;-70
2023/11/09 10:30:14;;;;;;;12.32;7.10;;;;;;;-145.63;51.98;39401.69;5000901;28;20038;-70
2023/11/09 10:32:40;;;;;;;15.75;7.72;;;;;;;-145.63;51.40;39376.28;4988586;28;20065;-71
2023/11/09 10:35:07;;;;;;;13.00;8.32;;;;;;;-145.63;51.38;39389.97;5005136;28;20770;-71
2023/11/09 10:37:35;;;;;;;13.88;7.82;;;;;;;-145.63;51.60;39395.84;4998884;28;20026;-70
2023/11/09 10:40:12;;;;;;;18.50;8.60;;;;;;;-145.63;51.36;39411.47;5005923;28;20030;-71
2023/11/09 10:42:39;;;;;;;13.70;7.65;;;;;;;-145.63;51.09;39411.47;5005854;28;20097;-71
2023/11/09 10:45:10;;;;;;;15.63;6.47;;;;;;;-145.63;51.25;39397.78;5005940;28;20188;-73
2023/11/09 10:47:39;;;;;;;10.63;6.93;;;;;;;-145.63;51.81;39397.78;5001296;28;20037;-73
2023/11/09 10:50:13;;;;;;;8.52;6.75;;;;;;;-145.63;52.08;39391.91;4992230;28;20327;-73
2023/11/09 10:52:45;;;;;;;8.52;6.65;;;;;;;-145.63;52.05;39415.38;5005956;28;20033;-71
2023/11/09 10:55:11;;;;;;;10.95;6.93;;;;;;;-145.63;51.68;39419.31;5000698;28;20095;-70
2023/11/09 10:57:43;;;;;;;12.90;7.43;;;;;;;-145.63;52.26;39415.38;5005408;28;20065;-70
2023/11/09 11:00:25;;;;;;;12.82;7.97;;;;;;;-145.63;52.55;39415.38;4996337;28;20334;-73
2023/11/09 11:02:53;;;;;;;11.68;8.07;;;;;;;-145.63;52.56;39421.25;4994197;28;20353;-71
2023/11/09 11:05:25;;;;;;;8.55;7.70;;;;;;;-145.63;52.65;39411.47;4995729;28;20034;-71
2023/11/09 11:08:06;;;;;;;12.55;8.00;;;;;;;-145.63;52.56;39403.66;4990565;28;20069;-70
2023/11/09 11:10:32;;;;;;;12.07;7.07;;;;;;;-145.63;52.29;39419.31;4984736;28;20319;-70
2023/11/09 11:13:05;;;;;;;9.65;6.60;;;;;;;-145.63;51.75;39395.84;4993768;28;20031;-70
2023/11/09 11:16:05;;;;;;;10.30;6.55;;;;;;;-145.63;52.21;39403.66;4993866;28;20030;-70
2023/11/09 11:18:56;;;;;;;8.45;5.97;;;;;;;-145.63;51.85;39382.13;4994105;28;20066;-72
2023/11/09 11:22:22;;;;;;;10.25;6.70;;;;;;;-145.63;52.25;39405.59;4990077;28;20222;-70